Hyalite Weather Station

This weather station provides temperature, wind speed, gust or max wind speed, and wind direction at 9982ft near the summit of Flanders Mountain. This data can be used with temperature and precipitation data from the Shower Falls SNOTEL site. If the data has not been updated recently you can view it directly on datagarrison.com

Elevation
9982ft
Jump to table bottom
Date Time Temperature
deg F
RH, % Wind Speed Wind Gust Wind Direction
12/10/22 01:00 8.1 54 29 43 SW - 234
12/10/22 00:00 6.3 72 26 41 SW - 234
12/09/22 23:00 5.9 77 20 40 SW - 233
12/09/22 22:00 5.2 82 19 36 SW - 233
12/09/22 21:00 5.0 82 14 25 SW - 240
12/09/22 20:00 5.7 82 10 18 SW - 243
12/09/22 19:00 6.9 82 11 22 W - 261
12/09/22 18:00 7.9 82 11 27 W - 263
12/09/22 17:00 8.3 82 12 20 W - 268
12/09/22 16:00 8.8 82 13 24 W - 263
12/09/22 15:00 9.4 82 12 25 W - 257
12/09/22 14:00 9.7 81 12 22 W - 248
12/09/22 13:00 9.5 81 17 26 W - 248
12/09/22 12:00 9.8 81 20 30 SW - 247
12/09/22 11:00 9.7 80 23 31 SW - 240
12/09/22 10:00 9.7 80 22 34 SW - 239
12/09/22 09:00 9.7 81 20 39 SW - 233
12/09/22 08:00 10.2 79 29 46 SW - 236
12/09/22 07:00 10.8 75 33 50 SW - 236
12/09/22 06:00 9.9 77 32 48 SW - 234
12/09/22 05:00 9.8 65 31 44 SW - 234
12/09/22 04:00 8.6 65 29 47 SW - 234
12/09/22 03:00 7.3 68 21 41 SW - 232
12/09/22 02:00 8.4 60 27 42 SW - 232
12/09/22 01:00 10.2 51 32 44 SW - 236
12/09/22 00:00 11.0 47 24 40 SW - 234
12/08/22 23:00 11.5 49 22 36 SW - 232
12/08/22 22:00 17.1 29 24 40 SW - 234
12/08/22 21:00 16.0 34 23 34 SW - 236
12/08/22 20:00 15.6 36 26 35 SW - 241
12/08/22 19:00 13.4 44 24 35 SW - 244
12/08/22 18:00 14.3 42 27 37 SW - 246
12/08/22 17:00 13.7 45 21 33 SW - 243
12/08/22 16:00 14.4 50 19 31 SW - 230
12/08/22 15:00 14.7 54 20 31 SW - 244
12/08/22 14:00 14.5 57 17 28 SW - 244
12/08/22 13:00 13.5 58 17 27 SW - 246
12/08/22 12:00 13.4 57 14 27 SW - 243
12/08/22 11:00 13.4 53 14 22 SW - 243
12/08/22 10:00 11.6 59 11 20 SW - 243
12/08/22 09:00 11.6 57 9 21 SW - 247
12/08/22 08:00 11.9 52 10 18 SW - 244
12/08/22 07:00 12.5 54 13 18 SW - 237
12/08/22 06:00 13.1 53 10 17 W - 260
12/08/22 05:00 14.1 50 12 18 W - 265
12/08/22 04:00 14.0 48 12 21 W - 268
12/08/22 03:00 14.6 41 8 17 W - 260
12/08/22 02:00 15.3 34 9 13 W - 254
12/08/22 01:00 14.8 37 8 13 W - 253
12/08/22 00:00 14.1 39 8 12 W - 265